DLH89 LKPR-EDDH
Flight info
| Callsign | DLH89 |
|---|---|
| Flight time | 0h 54m |
| Altitude | 36000 |
| Route | VENOX DCT DEKOV Y621 ESLOR M748 RARUP RARUP6A |
| Aircraft | A20N/M-SDE2E3FGHIRWXY/LB1 |
Departure
| Time | 2026-05-06 17:52 |
|---|---|
| Airport | Václav Havel Airport Prague (LKPR) |
Arrival
| Time | 2026-05-06 18:47 |
|---|---|
| Airport | Hamburg Helmut Schmidt Airport (EDDH) |
| Time | Latitude | Longitude | Altitude | Speed | Heading |
|---|---|---|---|---|---|
| 2026-05-06 17:22 | 50.10928 | 14.26618 | 1170 ft | 0 kts | 215° |
| 2026-05-06 17:40 | 50.10932 | 14.26623 | 1175 ft | 4 kts | 215° |
| 2026-05-06 17:40 | 50.10950 | 14.26642 | 1174 ft | 4 kts | 219° |
| 2026-05-06 17:41 | 50.10957 | 14.26668 | 1172 ft | 4 kts | 306° |
| 2026-05-06 17:41 | 50.10942 | 14.26696 | 1174 ft | 2 kts | 310° |
| 2026-05-06 17:41 | 50.10941 | 14.26697 | 1174 ft | 0 kts | 310° |
| 2026-05-06 17:43 | 50.10943 | 14.26693 | 1173 ft | 3 kts | 310° |
| 2026-05-06 17:44 | 50.10974 | 14.26638 | 1172 ft | 10 kts | 310° |
| 2026-05-06 17:44 | 50.11025 | 14.26527 | 1168 ft | 13 kts | 280° |
| 2026-05-06 17:44 | 50.10966 | 14.26428 | 1170 ft | 13 kts | 217° |
| 2026-05-06 17:44 | 50.10882 | 14.26338 | 1168 ft | 16 kts | 216° |
| 2026-05-06 17:45 | 50.10786 | 14.26234 | 1171 ft | 17 kts | 214° |
| 2026-05-06 17:45 | 50.10699 | 14.26142 | 1176 ft | 15 kts | 214° |
| 2026-05-06 17:45 | 50.10610 | 14.26049 | 1183 ft | 15 kts | 212° |
| 2026-05-06 17:45 | 50.10521 | 14.25976 | 1188 ft | 14 kts | 182° |
| 2026-05-06 17:46 | 50.10458 | 14.26066 | 1191 ft | 13 kts | 126° |
| 2026-05-06 17:46 | 50.10401 | 14.26186 | 1191 ft | 15 kts | 127° |
| 2026-05-06 17:46 | 50.10338 | 14.26315 | 1194 ft | 15 kts | 127° |
| 2026-05-06 17:46 | 50.10272 | 14.26455 | 1196 ft | 17 kts | 128° |
| 2026-05-06 17:47 | 50.10202 | 14.26594 | 1200 ft | 16 kts | 128° |
| 2026-05-06 17:47 | 50.10138 | 14.26730 | 1204 ft | 16 kts | 126° |
| 2026-05-06 17:47 | 50.10072 | 14.26866 | 1208 ft | 16 kts | 127° |
| 2026-05-06 17:47 | 50.10003 | 14.27008 | 1209 ft | 18 kts | 127° |
| 2026-05-06 17:48 | 50.09930 | 14.27159 | 1210 ft | 19 kts | 127° |
| 2026-05-06 17:48 | 50.09849 | 14.27321 | 1211 ft | 19 kts | 134° |
| 2026-05-06 17:48 | 50.09758 | 14.27458 | 1213 ft | 18 kts | 129° |
| 2026-05-06 17:48 | 50.09682 | 14.27578 | 1216 ft | 16 kts | 136° |
| 2026-05-06 17:49 | 50.09609 | 14.27690 | 1221 ft | 14 kts | 135° |
| 2026-05-06 17:49 | 50.09540 | 14.27797 | 1225 ft | 14 kts | 136° |
| 2026-05-06 17:49 | 50.09474 | 14.27897 | 1230 ft | 12 kts | 135° |
| 2026-05-06 17:49 | 50.09412 | 14.27993 | 1232 ft | 13 kts | 136° |
| 2026-05-06 17:50 | 50.09333 | 14.28112 | 1235 ft | 18 kts | 134° |
| 2026-05-06 17:50 | 50.09241 | 14.28253 | 1236 ft | 18 kts | 140° |
| 2026-05-06 17:50 | 50.09146 | 14.28260 | 1239 ft | 7 kts | 216° |
| 2026-05-06 17:50 | 50.09143 | 14.28256 | 1239 ft | 0 kts | 216° |
| 2026-05-06 17:51 | 50.09139 | 14.28252 | 1245 ft | 1 kts | 217° |
| 2026-05-06 17:51 | 50.09124 | 14.28233 | 1245 ft | 5 kts | 222° |
| 2026-05-06 17:51 | 50.09090 | 14.28138 | 1240 ft | 15 kts | 255° |
| 2026-05-06 17:51 | 50.09103 | 14.28047 | 1242 ft | 1 kts | 304° |
| 2026-05-06 17:52 | 50.09193 | 14.27858 | 1241 ft | 57 kts | 308° |
| 2026-05-06 17:52 | 50.09579 | 14.27063 | 1214 ft | 124 kts | 307° |
| 2026-05-06 17:52 | 50.10194 | 14.25793 | 1320 ft | 158 kts | 308° |
| 2026-05-06 17:52 | 50.10860 | 14.24450 | 1932 ft | 158 kts | 309° |
| 2026-05-06 17:53 | 50.11573 | 14.23124 | 2529 ft | 162 kts | 310° |
| 2026-05-06 17:53 | 50.12325 | 14.21786 | 3078 ft | 171 kts | 309° |
| 2026-05-06 17:53 | 50.13130 | 14.20274 | 3525 ft | 191 kts | 307° |
| 2026-05-06 17:53 | 50.13966 | 14.18591 | 4171 ft | 203 kts | 305° |
| 2026-05-06 17:54 | 50.14831 | 14.16719 | 4763 ft | 222 kts | 302° |
| 2026-05-06 17:54 | 50.15759 | 14.14619 | 5277 ft | 248 kts | 302° |
| 2026-05-06 17:54 | 50.16774 | 14.12304 | 5975 ft | 268 kts | 302° |
| 2026-05-06 17:54 | 50.17887 | 14.09873 | 6789 ft | 281 kts | 307° |
| 2026-05-06 17:55 | 50.19351 | 14.07905 | 7883 ft | 286 kts | 329° |
| 2026-05-06 17:55 | 50.21270 | 14.07056 | 9006 ft | 294 kts | 355° |
| 2026-05-06 17:55 | 50.23358 | 14.07205 | 9873 ft | 306 kts | 4° |
| 2026-05-06 17:55 | 50.25530 | 14.07623 | 10473 ft | 326 kts | 6° |
| 2026-05-06 17:56 | 50.27862 | 14.08140 | 10861 ft | 350 kts | 6° |
| 2026-05-06 17:56 | 50.30318 | 14.08668 | 11566 ft | 360 kts | 6° |
| 2026-05-06 17:56 | 50.32822 | 14.09171 | 12487 ft | 364 kts | 4° |
| 2026-05-06 17:56 | 50.35354 | 14.09639 | 13389 ft | 369 kts | 4° |
| 2026-05-06 17:57 | 50.37925 | 14.10105 | 14188 ft | 374 kts | 4° |
| 2026-05-06 17:57 | 50.40528 | 14.10580 | 14976 ft | 379 kts | 4° |
| 2026-05-06 17:57 | 50.43170 | 14.11068 | 15730 ft | 385 kts | 4° |
| 2026-05-06 17:57 | 50.45843 | 14.11567 | 16502 ft | 390 kts | 4° |
| 2026-05-06 17:58 | 50.48557 | 14.12076 | 17283 ft | 395 kts | 4° |
| 2026-05-06 17:58 | 50.51311 | 14.12595 | 18017 ft | 400 kts | 4° |
| 2026-05-06 17:58 | 50.54092 | 14.13120 | 18684 ft | 405 kts | 4° |
| 2026-05-06 17:58 | 50.56907 | 14.13663 | 19345 ft | 410 kts | 5° |
| 2026-05-06 17:59 | 50.59716 | 14.14310 | 19995 ft | 415 kts | 7° |
| 2026-05-06 17:59 | 50.62588 | 14.15024 | 20628 ft | 420 kts | 7° |
| 2026-05-06 17:59 | 50.65486 | 14.15749 | 21283 ft | 424 kts | 7° |
| 2026-05-06 17:59 | 50.68433 | 14.16476 | 21910 ft | 429 kts | 6° |
| 2026-05-06 18:00 | 50.71406 | 14.17201 | 22547 ft | 434 kts | 6° |
| 2026-05-06 18:00 | 50.74412 | 14.17929 | 23139 ft | 440 kts | 6° |
| 2026-05-06 18:00 | 50.77452 | 14.18662 | 23574 ft | 444 kts | 6° |
| 2026-05-06 18:00 | 50.80512 | 14.19400 | 23717 ft | 444 kts | 6° |
| 2026-05-06 18:01 | 50.83565 | 14.20133 | 23903 ft | 445 kts | 5° |
| 2026-05-06 18:01 | 50.86632 | 14.20211 | 24538 ft | 439 kts | 350° |
| 2026-05-06 18:01 | 50.89556 | 14.19161 | 25062 ft | 435 kts | 335° |
| 2026-05-06 18:01 | 50.92274 | 14.16986 | 25558 ft | 430 kts | 321° |
| 2026-05-06 18:02 | 50.94675 | 14.14257 | 26080 ft | 432 kts | 319° |
| 2026-05-06 18:02 | 50.97117 | 14.11438 | 26610 ft | 435 kts | 319° |
| 2026-05-06 18:02 | 50.99572 | 14.08607 | 27095 ft | 438 kts | 319° |
| 2026-05-06 18:02 | 51.02050 | 14.05758 | 27593 ft | 441 kts | 319° |
| 2026-05-06 18:03 | 51.04545 | 14.02892 | 28056 ft | 444 kts | 319° |
| 2026-05-06 18:03 | 51.06206 | 14.00985 | 28354 ft | 446 kts | 319° |
| 2026-05-06 18:03 | 51.08733 | 13.98081 | 28794 ft | 449 kts | 319° |
| 2026-05-06 18:03 | 51.11271 | 13.95161 | 29212 ft | 451 kts | 319° |
| 2026-05-06 18:04 | 51.13823 | 13.92220 | 29627 ft | 454 kts | 319° |
| 2026-05-06 18:04 | 51.16395 | 13.89252 | 30006 ft | 457 kts | 319° |
| 2026-05-06 18:04 | 51.18975 | 13.86271 | 30381 ft | 459 kts | 319° |
| 2026-05-06 18:04 | 51.21566 | 13.83274 | 30761 ft | 461 kts | 319° |
| 2026-05-06 18:05 | 51.24169 | 13.80258 | 31150 ft | 463 kts | 318° |
| 2026-05-06 18:05 | 51.26779 | 13.77229 | 31592 ft | 463 kts | 318° |
| 2026-05-06 18:05 | 51.29376 | 13.74214 | 32111 ft | 461 kts | 318° |
| 2026-05-06 18:05 | 51.31961 | 13.71208 | 32615 ft | 459 kts | 318° |
| 2026-05-06 18:06 | 51.34541 | 13.68203 | 33099 ft | 458 kts | 318° |
| 2026-05-06 18:06 | 51.37111 | 13.65204 | 33574 ft | 456 kts | 317° |
| 2026-05-06 18:06 | 51.39676 | 13.62206 | 33993 ft | 455 kts | 317° |
| 2026-05-06 18:06 | 51.42232 | 13.59211 | 34314 ft | 455 kts | 317° |
| 2026-05-06 18:07 | 51.44753 | 13.56254 | 34618 ft | 456 kts | 317° |
| 2026-05-06 18:07 | 51.47315 | 13.53244 | 34902 ft | 457 kts | 317° |
| 2026-05-06 18:07 | 51.49885 | 13.50222 | 35181 ft | 458 kts | 318° |
| 2026-05-06 18:07 | 51.52457 | 13.47193 | 35486 ft | 458 kts | 318° |
| 2026-05-06 18:08 | 51.55032 | 13.44156 | 35706 ft | 459 kts | 318° |
| 2026-05-06 18:08 | 51.57599 | 13.41127 | 35772 ft | 457 kts | 318° |
| 2026-05-06 18:08 | 51.62713 | 13.35077 | 35774 ft | 456 kts | 318° |
| 2026-05-06 18:09 | 51.67826 | 13.29008 | 35771 ft | 456 kts | 318° |
| 2026-05-06 18:09 | 51.72937 | 13.22924 | 35770 ft | 456 kts | 317° |
| 2026-05-06 18:10 | 51.78049 | 13.16820 | 35775 ft | 458 kts | 318° |
| 2026-05-06 18:10 | 51.82871 | 13.10157 | 35791 ft | 456 kts | 312° |
| 2026-05-06 18:11 | 51.87601 | 13.03329 | 35785 ft | 454 kts | 313° |
| 2026-05-06 18:11 | 51.92281 | 12.96557 | 35788 ft | 454 kts | 313° |
| 2026-05-06 18:12 | 51.96981 | 12.89716 | 35792 ft | 454 kts | 312° |
| 2026-05-06 18:12 | 52.01670 | 12.82865 | 35790 ft | 454 kts | 312° |
| 2026-05-06 18:13 | 52.06378 | 12.75965 | 35780 ft | 452 kts | 313° |
| 2026-05-06 18:13 | 52.11029 | 12.69128 | 35789 ft | 449 kts | 313° |
| 2026-05-06 18:14 | 52.15623 | 12.62357 | 35780 ft | 448 kts | 313° |
| 2026-05-06 18:14 | 52.20237 | 12.55537 | 35795 ft | 448 kts | 313° |
| 2026-05-06 18:15 | 52.24875 | 12.48658 | 35811 ft | 451 kts | 313° |
| 2026-05-06 18:15 | 52.29221 | 12.41363 | 35570 ft | 448 kts | 308° |
| 2026-05-06 18:16 | 52.31358 | 12.37658 | 35127 ft | 447 kts | 308° |
| 2026-05-06 18:16 | 52.33523 | 12.34012 | 34648 ft | 447 kts | 312° |
| 2026-05-06 18:16 | 52.35859 | 12.30651 | 34179 ft | 447 kts | 314° |
| 2026-05-06 18:16 | 52.38198 | 12.27303 | 33709 ft | 446 kts | 314° |
| 2026-05-06 18:17 | 52.40531 | 12.23943 | 33157 ft | 447 kts | 314° |
| 2026-05-06 18:17 | 52.42873 | 12.20560 | 32624 ft | 450 kts | 314° |
| 2026-05-06 18:17 | 52.45221 | 12.17164 | 32096 ft | 452 kts | 314° |
| 2026-05-06 18:17 | 52.47548 | 12.13796 | 31581 ft | 453 kts | 313° |
| 2026-05-06 18:18 | 52.49910 | 12.10375 | 31081 ft | 454 kts | 313° |
| 2026-05-06 18:18 | 52.52281 | 12.06936 | 30570 ft | 456 kts | 313° |
| 2026-05-06 18:18 | 52.54660 | 12.03479 | 30095 ft | 454 kts | 313° |
| 2026-05-06 18:18 | 52.57012 | 12.00062 | 29555 ft | 449 kts | 313° |
| 2026-05-06 18:19 | 52.59197 | 11.96882 | 29018 ft | 444 kts | 313° |
| 2026-05-06 18:19 | 52.61492 | 11.93535 | 28466 ft | 439 kts | 313° |
| 2026-05-06 18:19 | 52.63778 | 11.90241 | 27911 ft | 436 kts | 316° |
| 2026-05-06 18:19 | 52.66184 | 11.87194 | 27392 ft | 434 kts | 317° |
| 2026-05-06 18:20 | 52.68573 | 11.84183 | 26864 ft | 431 kts | 317° |
| 2026-05-06 18:20 | 52.70938 | 11.81193 | 26348 ft | 427 kts | 317° |
| 2026-05-06 18:20 | 52.73281 | 11.78223 | 25836 ft | 423 kts | 317° |
| 2026-05-06 18:20 | 52.75605 | 11.75273 | 25335 ft | 419 kts | 317° |
| 2026-05-06 18:21 | 52.77905 | 11.72350 | 24806 ft | 414 kts | 317° |
| 2026-05-06 18:21 | 52.80181 | 11.69454 | 24234 ft | 410 kts | 317° |
| 2026-05-06 18:21 | 52.82430 | 11.66587 | 23673 ft | 406 kts | 317° |
| 2026-05-06 18:21 | 52.84656 | 11.63739 | 23089 ft | 402 kts | 318° |
| 2026-05-06 18:22 | 52.86860 | 11.60921 | 22423 ft | 398 kts | 318° |
| 2026-05-06 18:22 | 52.89041 | 11.58133 | 21786 ft | 395 kts | 318° |
| 2026-05-06 18:22 | 52.91178 | 11.55397 | 21153 ft | 391 kts | 318° |
| 2026-05-06 18:22 | 52.93325 | 11.52643 | 20536 ft | 388 kts | 318° |
| 2026-05-06 18:23 | 52.95450 | 11.49917 | 19925 ft | 385 kts | 318° |
| 2026-05-06 18:23 | 52.97561 | 11.47204 | 19337 ft | 382 kts | 318° |
| 2026-05-06 18:23 | 52.99671 | 11.44489 | 18752 ft | 379 kts | 318° |
| 2026-05-06 18:23 | 53.01747 | 11.41814 | 18180 ft | 376 kts | 318° |
| 2026-05-06 18:24 | 53.03787 | 11.39183 | 17561 ft | 373 kts | 319° |
| 2026-05-06 18:24 | 53.05826 | 11.36551 | 16959 ft | 370 kts | 319° |
| 2026-05-06 18:24 | 53.07851 | 11.33944 | 16368 ft | 366 kts | 319° |
| 2026-05-06 18:24 | 53.09886 | 11.31330 | 15781 ft | 363 kts | 319° |
| 2026-05-06 18:25 | 53.11850 | 11.28806 | 15224 ft | 360 kts | 320° |
| 2026-05-06 18:25 | 53.13897 | 11.26421 | 14686 ft | 358 kts | 322° |
| 2026-05-06 18:25 | 53.15939 | 11.24076 | 14152 ft | 355 kts | 322° |
| 2026-05-06 18:25 | 53.17963 | 11.21742 | 13616 ft | 352 kts | 322° |
| 2026-05-06 18:26 | 53.19965 | 11.19429 | 13014 ft | 349 kts | 322° |
| 2026-05-06 18:26 | 53.21948 | 11.17132 | 12443 ft | 346 kts | 322° |
| 2026-05-06 18:26 | 53.23927 | 11.14832 | 11778 ft | 346 kts | 323° |
| 2026-05-06 18:26 | 53.25896 | 11.12544 | 11212 ft | 344 kts | 323° |
| 2026-05-06 18:27 | 53.27851 | 11.10273 | 10658 ft | 341 kts | 323° |
| 2026-05-06 18:27 | 53.29794 | 11.08014 | 10135 ft | 338 kts | 324° |
| 2026-05-06 18:27 | 53.31678 | 11.05825 | 9918 ft | 319 kts | 324° |
| 2026-05-06 18:27 | 53.33429 | 11.03791 | 9866 ft | 294 kts | 323° |
| 2026-05-06 18:28 | 53.35104 | 11.01840 | 9868 ft | 296 kts | 323° |
| 2026-05-06 18:28 | 53.36789 | 10.99871 | 9867 ft | 295 kts | 323° |
| 2026-05-06 18:28 | 53.38475 | 10.97900 | 9872 ft | 296 kts | 323° |
| 2026-05-06 18:28 | 53.40169 | 10.95918 | 9870 ft | 296 kts | 323° |
| 2026-05-06 18:29 | 53.41849 | 10.93952 | 9870 ft | 293 kts | 323° |
| 2026-05-06 18:29 | 53.43526 | 10.91989 | 9870 ft | 296 kts | 323° |
| 2026-05-06 18:29 | 53.45209 | 10.90016 | 9872 ft | 294 kts | 323° |
| 2026-05-06 18:29 | 53.46874 | 10.88064 | 9875 ft | 295 kts | 325° |
| 2026-05-06 18:30 | 53.48572 | 10.86071 | 9874 ft | 295 kts | 326° |
| 2026-05-06 18:30 | 53.50269 | 10.84081 | 9873 ft | 298 kts | 325° |
| 2026-05-06 18:30 | 53.51933 | 10.82124 | 9881 ft | 295 kts | 326° |
| 2026-05-06 18:30 | 53.53620 | 10.80139 | 9881 ft | 298 kts | 326° |
| 2026-05-06 18:31 | 53.55321 | 10.78138 | 9889 ft | 298 kts | 326° |
| 2026-05-06 18:31 | 53.56972 | 10.76070 | 9890 ft | 295 kts | 316° |
| 2026-05-06 18:31 | 53.58073 | 10.73347 | 9802 ft | 290 kts | 291° |
| 2026-05-06 18:31 | 53.58436 | 10.70043 | 9293 ft | 293 kts | 267° |
| 2026-05-06 18:32 | 53.58266 | 10.66597 | 8738 ft | 297 kts | 264° |
| 2026-05-06 18:32 | 53.58069 | 10.63167 | 8428 ft | 291 kts | 264° |
| 2026-05-06 18:32 | 53.57868 | 10.59794 | 8055 ft | 288 kts | 264° |
| 2026-05-06 18:32 | 53.57658 | 10.56430 | 7601 ft | 288 kts | 264° |
| 2026-05-06 18:33 | 53.57443 | 10.53107 | 7199 ft | 286 kts | 264° |
| 2026-05-06 18:33 | 53.57222 | 10.49813 | 6959 ft | 279 kts | 264° |
| 2026-05-06 18:33 | 53.56997 | 10.46524 | 6896 ft | 286 kts | 264° |
| 2026-05-06 18:33 | 53.56771 | 10.43211 | 6888 ft | 285 kts | 264° |
| 2026-05-06 18:34 | 53.56538 | 10.39884 | 6893 ft | 287 kts | 264° |
| 2026-05-06 18:34 | 53.56276 | 10.36647 | 6881 ft | 279 kts | 258° |
| 2026-05-06 18:34 | 53.55641 | 10.33553 | 6556 ft | 281 kts | 249° |
| 2026-05-06 18:34 | 53.54919 | 10.30502 | 6207 ft | 279 kts | 249° |
| 2026-05-06 18:35 | 53.54203 | 10.27454 | 5724 ft | 281 kts | 249° |
| 2026-05-06 18:35 | 53.53501 | 10.24456 | 5532 ft | 268 kts | 249° |
| 2026-05-06 18:35 | 53.52836 | 10.21628 | 5367 ft | 252 kts | 249° |
| 2026-05-06 18:35 | 53.52201 | 10.18932 | 5087 ft | 246 kts | 249° |
| 2026-05-06 18:36 | 53.51572 | 10.16247 | 4998 ft | 251 kts | 249° |
| 2026-05-06 18:36 | 53.50936 | 10.13537 | 4991 ft | 249 kts | 249° |
| 2026-05-06 18:36 | 53.50303 | 10.10834 | 4996 ft | 249 kts | 249° |
| 2026-05-06 18:36 | 53.49676 | 10.08163 | 4992 ft | 249 kts | 249° |
| 2026-05-06 18:37 | 53.49042 | 10.05459 | 4993 ft | 249 kts | 249° |
| 2026-05-06 18:37 | 53.48612 | 10.03631 | 4995 ft | 249 kts | 249° |
| 2026-05-06 18:37 | 53.47771 | 10.00045 | 4994 ft | 249 kts | 249° |
| 2026-05-06 18:37 | 53.47137 | 9.97344 | 4992 ft | 249 kts | 249° |
| 2026-05-06 18:38 | 53.46501 | 9.94634 | 4991 ft | 250 kts | 249° |
| 2026-05-06 18:38 | 53.45866 | 9.91925 | 4991 ft | 248 kts | 249° |
| 2026-05-06 18:38 | 53.45230 | 9.89223 | 4997 ft | 250 kts | 249° |
| 2026-05-06 18:38 | 53.44590 | 9.86514 | 4992 ft | 249 kts | 249° |
| 2026-05-06 18:39 | 53.43951 | 9.83810 | 4993 ft | 249 kts | 249° |
| 2026-05-06 18:39 | 53.43315 | 9.81114 | 4993 ft | 249 kts | 249° |
| 2026-05-06 18:39 | 53.42676 | 9.78409 | 4992 ft | 249 kts | 249° |
| 2026-05-06 18:40 | 53.42661 | 9.72911 | 4811 ft | 239 kts | 303° |
| 2026-05-06 18:40 | 53.43663 | 9.70713 | 4436 ft | 237 kts | 314° |
| 2026-05-06 18:40 | 53.44813 | 9.68827 | 4061 ft | 230 kts | 336° |
| 2026-05-06 18:40 | 53.46315 | 9.68432 | 3961 ft | 221 kts | 17° |
| 2026-05-06 18:41 | 53.47561 | 9.69645 | 3852 ft | 199 kts | 44° |
| 2026-05-06 18:41 | 53.48469 | 9.71271 | 3704 ft | 182 kts | 49° |
| 2026-05-06 18:41 | 53.49296 | 9.72724 | 3660 ft | 162 kts | 47° |
| 2026-05-06 18:41 | 53.50097 | 9.74090 | 3559 ft | 163 kts | 47° |
| 2026-05-06 18:42 | 53.50880 | 9.75443 | 3371 ft | 163 kts | 48° |
| 2026-05-06 18:42 | 53.51664 | 9.76820 | 3169 ft | 163 kts | 48° |
| 2026-05-06 18:42 | 53.52436 | 9.78200 | 2960 ft | 162 kts | 49° |
| 2026-05-06 18:42 | 53.53248 | 9.79525 | 2781 ft | 162 kts | 44° |
| 2026-05-06 18:43 | 53.54076 | 9.80793 | 2540 ft | 161 kts | 46° |
| 2026-05-06 18:43 | 53.54834 | 9.82169 | 2328 ft | 161 kts | 51° |
| 2026-05-06 18:43 | 53.55513 | 9.83631 | 2068 ft | 157 kts | 54° |
| 2026-05-06 18:43 | 53.56207 | 9.85048 | 1931 ft | 157 kts | 51° |
| 2026-05-06 18:44 | 53.56880 | 9.86360 | 1707 ft | 137 kts | 51° |
| 2026-05-06 18:44 | 53.57461 | 9.87555 | 1466 ft | 128 kts | 53° |
| 2026-05-06 18:44 | 53.58008 | 9.88701 | 1322 ft | 124 kts | 52° |
| 2026-05-06 18:44 | 53.58572 | 9.89812 | 1191 ft | 127 kts | 51° |
| 2026-05-06 18:45 | 53.59129 | 9.90918 | 1045 ft | 126 kts | 52° |
| 2026-05-06 18:45 | 53.59701 | 9.92090 | 830 ft | 125 kts | 51° |
| 2026-05-06 18:45 | 53.60255 | 9.93185 | 650 ft | 125 kts | 51° |
| 2026-05-06 18:45 | 53.60627 | 9.93950 | 519 ft | 130 kts | 51° |
| 2026-05-06 18:46 | 53.61422 | 9.95551 | 268 ft | 134 kts | 51° |
| 2026-05-06 18:46 | 53.61997 | 9.96724 | 95 ft | 126 kts | 50° |
| 2026-05-06 18:46 | 53.62517 | 9.97771 | 41 ft | 107 kts | 50° |
| 2026-05-06 18:46 | 53.62789 | 9.98320 | 44 ft | 74 kts | 50° |
| 2026-05-06 18:47 | 53.62983 | 9.98718 | 43 ft | 34 kts | 50° |
| 2026-05-06 18:47 | 53.63092 | 9.99127 | 44 ft | 10 kts | 92° |
| 2026-05-06 18:47 | 53.63091 | 9.99148 | 44 ft | 0 kts | 94° |
| 2026-05-06 18:47 | 53.63091 | 9.99169 | 44 ft | 4 kts | 93° |
| 2026-05-06 18:48 | 53.63089 | 9.99214 | 44 ft | 7 kts | 95° |
| 2026-05-06 18:48 | 53.63086 | 9.99316 | 44 ft | 10 kts | 87° |
| 2026-05-06 18:48 | 53.63092 | 9.99367 | 44 ft | 0 kts | 72° |
| 2026-05-06 18:48 | 53.63094 | 9.99376 | 45 ft | 2 kts | 72° |
| 2026-05-06 18:49 | 53.63109 | 9.99427 | 44 ft | 9 kts | 57° |
| 2026-05-06 18:49 | 53.63173 | 9.99567 | 44 ft | 19 kts | 52° |
| 2026-05-06 18:49 | 53.63204 | 9.99636 | 44 ft | 0 kts | 52° |
| 2026-05-06 18:50 | 53.63206 | 9.99639 | 44 ft | 1 kts | 51° |
| 2026-05-06 18:50 | 53.63222 | 9.99667 | 44 ft | 6 kts | 46° |
| 2026-05-06 18:50 | 53.63264 | 9.99738 | 44 ft | 12 kts | 43° |
| 2026-05-06 18:50 | 53.63334 | 9.99873 | 45 ft | 18 kts | 50° |
| 2026-05-06 18:51 | 53.63399 | 10.00007 | 45 ft | 12 kts | 52° |
| 2026-05-06 18:51 | 53.63444 | 10.00105 | 45 ft | 9 kts | 50° |
| 2026-05-06 18:51 | 53.63450 | 10.00205 | 44 ft | 10 kts | 126° |
| 2026-05-06 18:51 | 53.63379 | 10.00227 | 46 ft | 13 kts | 175° |
| 2026-05-06 18:52 | 53.63327 | 10.00263 | 44 ft | 6 kts | 85° |
| 2026-05-06 18:52 | 53.63334 | 10.00344 | 46 ft | 7 kts | 86° |
| 2026-05-06 18:52 | 53.63334 | 10.00356 | 46 ft | 0 kts | 86° |